createdAt,value
2022-11-22T00:00:22.742Z,8.90
2022-11-22T00:02:49.271Z,10.07
2022-11-22T00:05:15.891Z,9.63
2022-11-22T00:07:42.547Z,9.52
2022-11-22T00:10:11.438Z,9.25
2022-11-22T00:12:38.611Z,10.35
2022-11-22T00:15:06.207Z,10.67
2022-11-22T00:17:33.381Z,6.95
2022-11-22T00:20:00.354Z,7.90
2022-11-22T00:22:27.060Z,8.80
2022-11-22T00:24:53.866Z,9.73
2022-11-22T00:27:20.688Z,8.63
2022-11-22T00:29:47.251Z,9.43
2022-11-22T00:32:14.373Z,8.32
2022-11-22T00:34:41.023Z,9.23
2022-11-22T00:37:07.901Z,10.07
2022-11-22T00:39:34.842Z,10.03
2022-11-22T00:42:01.901Z,10.15
2022-11-22T00:44:28.484Z,10.38
2022-11-22T00:46:55.147Z,9.30
2022-11-22T00:49:21.789Z,9.88
2022-11-22T00:51:48.354Z,10.13
2022-11-22T00:54:15.700Z,9.07
2022-11-22T00:56:42.816Z,8.13
2022-11-22T00:59:09.329Z,8.30
2022-11-22T01:01:36.007Z,8.05
2022-11-22T01:04:02.941Z,8.60
2022-11-22T01:06:29.601Z,10.05
2022-11-22T01:08:58.029Z,10.38
2022-11-22T01:11:24.870Z,8.77
2022-11-22T01:13:51.521Z,8.05
2022-11-22T01:16:18.196Z,9.87
2022-11-22T01:18:45.843Z,8.35
2022-11-22T01:21:12.398Z,8.60
2022-11-22T01:23:39.061Z,9.43
2022-11-22T01:26:09.328Z,9.95
2022-11-22T01:28:36.868Z,9.57
2022-11-22T01:31:04.857Z,10.30
2022-11-22T01:33:31.491Z,6.68
2022-11-22T01:35:58.466Z,9.05
2022-11-22T01:38:25.697Z,8.02
2022-11-22T01:40:53.314Z,8.73
2022-11-22T01:43:25.387Z,7.38
2022-11-22T01:46:03.452Z,9.18
2022-11-22T01:48:42.425Z,8.10
2022-11-22T01:51:25.969Z,8.80
2022-11-22T01:53:56.575Z,8.87
2022-11-22T01:56:24.503Z,8.55
2022-11-22T01:58:56.468Z,7.78
2022-11-22T02:01:23.122Z,7.88
2022-11-22T02:03:51.719Z,8.63
2022-11-22T02:06:19.625Z,7.57
2022-11-22T02:09:12.638Z,8.63
2022-11-22T02:11:46.795Z,7.93
2022-11-22T02:14:16.651Z,8.77
2022-11-22T02:16:44.023Z,7.18
2022-11-22T02:19:21.351Z,8.90
2022-11-22T02:21:54.590Z,8.80
2022-11-22T02:24:31.833Z,8.68
2022-11-22T02:26:58.759Z,8.27
2022-11-22T02:29:25.508Z,8.50
2022-11-22T02:31:52.204Z,7.67
2022-11-22T02:34:18.783Z,8.68
2022-11-22T02:36:50.028Z,9.23
2022-11-22T02:39:21.693Z,8.48
2022-11-22T02:41:49.794Z,8.73
2022-11-22T02:44:17.082Z,7.00
2022-11-22T02:46:54.437Z,8.23
2022-11-22T02:49:23.694Z,6.43
2022-11-22T02:51:51.771Z,7.90
2022-11-22T02:54:18.958Z,7.28
2022-11-22T02:56:45.931Z,8.87
2022-11-22T02:59:12.627Z,7.68
2022-11-22T03:01:39.750Z,9.50
2022-11-22T03:04:06.355Z,8.23
2022-11-22T03:06:32.947Z,8.90
2022-11-22T03:08:59.506Z,8.00
2022-11-22T03:11:26.514Z,8.60
2022-11-22T03:13:53.125Z,9.40
2022-11-22T03:16:19.767Z,8.88
2022-11-22T03:18:48.735Z,9.52
2022-11-22T03:21:15.349Z,7.80
2022-11-22T03:23:41.905Z,8.55
2022-11-22T03:26:10.436Z,9.88
2022-11-22T03:28:36.936Z,8.70
2022-11-22T03:31:07.597Z,8.25
2022-11-22T03:33:35.256Z,8.50
2022-11-22T03:36:02.509Z,8.43
2022-11-22T03:38:29.300Z,7.88
2022-11-22T03:40:56.058Z,8.45
2022-11-22T03:43:22.760Z,8.63
2022-11-22T03:45:49.723Z,8.23
2022-11-22T03:48:16.388Z,8.27
2022-11-22T03:50:43.311Z,9.35
2022-11-22T03:53:10.581Z,7.03
2022-11-22T03:55:37.166Z,8.50
2022-11-22T03:58:03.985Z,8.83
2022-11-22T04:00:31.401Z,9.38
2022-11-22T04:02:57.982Z,9.15
2022-11-22T04:05:24.951Z,9.02
2022-11-22T04:07:57.107Z,8.05
2022-11-22T04:10:24.372Z,7.53
2022-11-22T04:12:51.161Z,8.63
2022-11-22T04:15:17.880Z,9.35
2022-11-22T04:17:45.832Z,9.15
2022-11-22T04:20:41.932Z,8.85
2022-11-22T04:23:12.174Z,9.00
2022-11-22T04:25:41.264Z,9.45
2022-11-22T04:28:09.718Z,9.50
2022-11-22T04:30:54.497Z,9.00
2022-11-22T04:33:21.938Z,8.70
2022-11-22T04:35:49.336Z,9.60
2022-11-22T04:38:17.925Z,10.18
2022-11-22T04:40:45.700Z,10.20
2022-11-22T04:43:49.330Z,6.93
2022-11-22T04:46:16.334Z,7.35
2022-11-22T04:48:43.195Z,9.00
2022-11-22T04:51:32.396Z,9.48
2022-11-22T04:53:58.972Z,9.70
2022-11-22T04:56:25.670Z,6.50
2022-11-22T04:58:52.342Z,7.22
2022-11-22T05:01:19.053Z,9.57
2022-11-22T05:03:46.091Z,7.88
2022-11-22T05:06:13.337Z,9.70
2022-11-22T05:08:40.380Z,10.73
2022-11-22T05:11:07.065Z,11.45
2022-11-22T05:13:39.170Z,9.70
2022-11-22T05:16:11.577Z,8.75
2022-11-22T05:18:38.719Z,8.23
2022-11-22T05:21:06.580Z,6.53
2022-11-22T05:23:52.470Z,8.38
2022-11-22T05:26:19.412Z,10.33
2022-11-22T05:28:46.215Z,10.57
2022-11-22T05:31:16.435Z,10.48
2022-11-22T05:33:45.443Z,9.98
2022-11-22T05:36:13.140Z,8.57
2022-11-22T05:38:39.940Z,9.57
2022-11-22T05:41:08.867Z,11.25
2022-11-22T05:43:35.981Z,9.63
2022-11-22T05:46:17.214Z,8.85
2022-11-22T05:48:47.849Z,10.63
2022-11-22T05:51:16.963Z,8.43
2022-11-22T05:53:44.657Z,8.98
2022-11-22T05:56:13.962Z,9.32
2022-11-22T05:58:41.499Z,9.65
2022-11-22T06:01:11.152Z,10.23
2022-11-22T06:03:38.075Z,9.10
2022-11-22T06:06:06.391Z,7.82
2022-11-22T06:08:34.555Z,9.32
2022-11-22T06:11:25.740Z,9.13
2022-11-22T06:13:55.031Z,8.02
2022-11-22T06:16:22.440Z,9.90
2022-11-22T06:18:50.103Z,10.63
2022-11-22T06:21:19.741Z,10.13
2022-11-22T06:23:46.852Z,11.05
2022-11-22T06:26:16.818Z,9.90
2022-11-22T06:28:45.969Z,8.87
2022-11-22T06:31:18.597Z,9.65
2022-11-22T06:33:45.388Z,9.60
2022-11-22T06:36:23.752Z,9.27
2022-11-22T06:38:51.212Z,9.75
2022-11-22T06:41:26.201Z,10.73
2022-11-22T06:43:56.054Z,11.50
2022-11-22T06:46:24.712Z,9.45
2022-11-22T06:48:52.014Z,8.68
2022-11-22T06:51:19.803Z,9.02
2022-11-22T06:53:49.016Z,9.83
2022-11-22T06:56:24.889Z,9.95
2022-11-22T06:58:52.493Z,9.57
2022-11-22T07:01:26.320Z,9.85
2022-11-22T07:03:58.167Z,10.07
2022-11-22T07:06:37.112Z,10.60
2022-11-22T07:09:09.206Z,8.55
2022-11-22T07:11:36.523Z,7.82
2022-11-22T07:14:08.768Z,10.48
2022-11-22T07:16:38.463Z,10.45
2022-11-22T07:19:06.212Z,10.77
2022-11-22T07:21:33.415Z,9.50
2022-11-22T07:23:59.932Z,10.88
2022-11-22T07:26:27.780Z,10.05
2022-11-22T07:28:54.484Z,10.05
2022-11-22T07:31:21.385Z,12.03
2022-11-22T07:33:48.521Z,10.57
2022-11-22T07:36:18.044Z,11.38
2022-11-22T07:38:45.520Z,10.98
2022-11-22T07:41:12.669Z,9.13
2022-11-22T07:43:39.624Z,9.50
2022-11-22T07:46:11.489Z,10.07
2022-11-22T07:48:38.129Z,9.93
2022-11-22T07:51:06.660Z,10.93
2022-11-22T07:53:34.852Z,9.80
2022-11-22T07:56:05.582Z,8.63
2022-11-22T07:58:33.945Z,9.25
2022-11-22T08:01:30.071Z,8.85
2022-11-22T08:03:56.694Z,10.65
2022-11-22T08:06:23.745Z,10.85
2022-11-22T08:08:51.026Z,9.27
2022-11-22T08:11:17.678Z,9.13
2022-11-22T08:13:44.664Z,7.80
2022-11-22T08:16:13.854Z,10.20
2022-11-22T08:18:41.585Z,9.13
2022-11-22T08:21:10.948Z,6.37
2022-11-22T08:23:38.600Z,8.93
2022-11-22T08:26:07.040Z,11.40
2022-11-22T08:28:33.960Z,10.20
2022-11-22T08:31:08.358Z,9.13
2022-11-22T08:33:35.208Z,8.33
2022-11-22T08:36:02.482Z,11.00
2022-11-22T08:38:29.223Z,10.35
2022-11-22T08:40:56.320Z,10.80
2022-11-22T08:43:22.998Z,9.02
2022-11-22T08:45:54.373Z,8.23
2022-11-22T08:48:22.510Z,10.70
2022-11-22T08:50:51.235Z,10.98
2022-11-22T08:53:17.792Z,7.68
2022-11-22T08:55:44.739Z,7.95
2022-11-22T08:58:11.556Z,11.67
2022-11-22T09:00:38.113Z,9.15
2022-11-22T09:03:04.796Z,9.93
2022-11-22T09:05:32.499Z,11.23
2022-11-22T09:10:46.314Z,10.10
2022-11-22T09:13:12.942Z,9.27
2022-11-22T09:15:39.621Z,10.73
2022-11-22T09:18:06.266Z,11.25
2022-11-22T09:20:32.898Z,11.48
2022-11-22T09:23:01.284Z,10.13
2022-11-22T09:25:27.915Z,11.13
2022-11-22T09:27:54.475Z,8.70
2022-11-22T09:30:21.619Z,10.82
2022-11-22T09:32:48.238Z,7.60
2022-11-22T09:35:17.103Z,10.90
2022-11-22T09:37:43.764Z,8.52
2022-11-22T09:40:10.801Z,9.43
2022-11-22T09:43:06.983Z,10.65
2022-11-22T09:46:00.281Z,8.43
2022-11-22T09:48:42.068Z,10.10
2022-11-22T09:51:23.209Z,10.32
2022-11-22T09:54:12.808Z,11.27
2022-11-22T09:56:40.527Z,10.45
2022-11-22T09:59:18.465Z,11.98
2022-11-22T10:01:52.881Z,10.20
2022-11-22T10:04:50.835Z,13.10
2022-11-22T10:07:40.657Z,12.90
2022-11-22T10:10:13.307Z,11.85
2022-11-22T10:13:06.449Z,12.18
2022-11-22T10:15:51.187Z,12.30
2022-11-22T10:18:56.971Z,12.43
2022-11-22T10:21:23.558Z,9.80
2022-11-22T10:23:50.188Z,10.52
2022-11-22T10:26:32.544Z,7.45
2022-11-22T10:29:01.779Z,12.27
2022-11-22T10:31:33.258Z,12.20
2022-11-22T10:34:30.867Z,11.25
2022-11-22T10:37:10.976Z,12.82
2022-11-22T10:40:19.172Z,11.52
2022-11-22T10:43:15.605Z,11.40
2022-11-22T10:45:47.122Z,13.15
2022-11-22T10:48:28.102Z,12.50
2022-11-22T10:51:09.599Z,11.48
2022-11-22T10:54:03.599Z,11.80
2022-11-22T10:56:43.460Z,12.80
2022-11-22T10:59:42.190Z,12.88
2022-11-22T11:02:27.534Z,9.65
2022-11-22T11:04:56.165Z,12.35
2022-11-22T11:07:24.519Z,12.95
2022-11-22T11:10:20.298Z,12.80
2022-11-22T11:12:50.982Z,8.25
2022-11-22T11:15:31.395Z,11.63
2022-11-22T11:18:01.736Z,12.85
2022-11-22T11:20:41.174Z,12.95
2022-11-22T11:23:17.067Z,12.60
2022-11-22T11:25:48.816Z,12.77
2022-11-22T11:28:24.835Z,12.98
2022-11-22T11:30:59.568Z,11.27
2022-11-22T11:33:32.991Z,13.75
2022-11-22T11:36:07.047Z,12.13
2022-11-22T11:38:35.109Z,10.60
2022-11-22T11:41:29.347Z,10.65
2022-11-22T11:43:58.299Z,13.07
2022-11-22T11:46:27.344Z,12.93
2022-11-22T11:49:13.313Z,12.57
2022-11-22T11:51:43.103Z,13.48
2022-11-22T11:54:14.152Z,12.73
2022-11-22T11:56:58.169Z,13.98
2022-11-22T11:59:45.207Z,12.98
2022-11-22T12:02:35.696Z,10.87
2022-11-22T12:05:24.384Z,14.18
2022-11-22T12:07:51.191Z,13.13
2022-11-22T12:10:31.743Z,13.02
2022-11-22T12:13:05.016Z,11.90
2022-11-22T12:15:56.073Z,13.60
2022-11-22T12:18:48.613Z,13.88
2022-11-22T12:21:43.459Z,13.75
2022-11-22T12:27:04.285Z,13.63
2022-11-22T12:29:35.102Z,14.43
2022-11-22T12:32:07.786Z,11.20
2022-11-22T12:34:40.458Z,13.93
2022-11-22T12:37:19.772Z,15.57
2022-11-22T12:39:48.796Z,15.65
2022-11-22T12:42:23.239Z,18.27
2022-11-22T12:45:01.725Z,19.85
2022-11-22T12:47:32.742Z,17.13
2022-11-22T12:48:23.410Z,12.95
2022-11-22T12:50:17.364Z,16.85
2022-11-22T12:52:50.940Z,15.57
2022-11-22T12:55:24.864Z,15.30
2022-11-22T12:58:10.001Z,11.20
2022-11-22T13:00:44.650Z,14.52
2022-11-22T13:03:15.924Z,13.43
2022-11-22T13:05:54.917Z,13.98
2022-11-22T13:08:33.097Z,12.23
2022-11-22T13:11:09.355Z,14.25
2022-11-22T13:13:42.253Z,11.95
2022-11-22T13:16:11.372Z,13.38
2022-11-22T13:18:46.500Z,14.35
2022-11-22T13:21:28.260Z,14.03
2022-11-22T13:24:02.213Z,13.88
2022-11-22T13:26:51.962Z,13.32
2022-11-22T13:29:27.183Z,11.45
2022-11-22T13:32:12.007Z,12.88
2022-11-22T13:34:59.317Z,12.83
2022-11-22T13:37:28.521Z,13.02
2022-11-22T13:39:55.416Z,14.73
2022-11-22T13:42:27.682Z,12.75
2022-11-22T13:44:54.172Z,13.55
2022-11-22T13:47:23.781Z,11.53
2022-11-22T13:49:51.668Z,13.32
2022-11-22T13:52:18.244Z,14.82
2022-11-22T13:54:47.956Z,14.00
2022-11-22T13:57:34.962Z,15.18
2022-11-22T14:00:16.761Z,12.80
2022-11-22T14:03:14.837Z,12.63
2022-11-22T14:05:48.455Z,10.52
2022-11-22T14:08:35.429Z,14.50
2022-11-22T14:11:07.201Z,14.25
2022-11-22T14:13:47.609Z,12.77
2022-11-22T14:16:45.137Z,13.77
2022-11-22T14:19:19.967Z,12.35
2022-11-22T14:21:49.903Z,14.10
2022-11-22T14:24:50.600Z,13.98
2022-11-22T14:27:29.469Z,13.03
2022-11-22T14:30:12.997Z,10.20
2022-11-22T14:32:54.187Z,12.80
2022-11-22T14:35:35.107Z,13.55
2022-11-22T14:38:10.036Z,13.30
2022-11-22T14:40:37.786Z,11.70
2022-11-22T14:43:17.090Z,12.85
2022-11-22T14:45:48.586Z,13.85
2022-11-22T14:48:20.801Z,13.57
2022-11-22T14:50:54.919Z,12.07
2022-11-22T14:53:36.877Z,13.87
2022-11-22T14:56:07.347Z,12.15
2022-11-22T14:58:39.108Z,12.32
2022-11-22T15:01:30.708Z,14.15
2022-11-22T15:09:23.226Z,13.68
2022-11-22T15:09:23.872Z,13.30
2022-11-22T15:10:22.779Z,12.50
2022-11-22T15:13:19.610Z,13.13
2022-11-22T15:59:41.142Z,14.80
2022-11-22T16:02:15.021Z,15.60
2022-11-22T16:04:48.382Z,13.60
2022-11-22T16:07:35.154Z,13.15
2022-11-22T16:10:06.105Z,13.80
2022-11-22T16:12:36.777Z,14.07
2022-11-22T16:15:27.081Z,13.73
2022-11-22T16:18:05.461Z,14.03
2022-11-22T16:20:33.658Z,15.07
2022-11-22T16:23:04.614Z,12.93
2022-11-22T16:25:33.106Z,13.48
2022-11-22T16:28:03.492Z,11.18
2022-11-22T16:30:30.110Z,13.30
2022-11-22T16:32:58.520Z,13.95
2022-11-22T16:35:29.805Z,13.77
2022-11-22T16:37:56.767Z,15.55
2022-11-22T16:40:23.465Z,13.10
2022-11-22T16:42:50.037Z,12.53
2022-11-22T16:45:19.751Z,15.05
2022-11-22T16:47:54.621Z,14.32
2022-11-22T16:50:33.872Z,14.00
2022-11-22T16:53:02.916Z,16.10
2022-11-22T16:55:29.693Z,14.23
2022-11-22T16:57:56.486Z,12.55
2022-11-22T17:00:23.000Z,15.25
2022-11-22T17:02:49.588Z,14.48
2022-11-22T17:05:17.444Z,14.23
2022-11-22T17:07:44.076Z,14.80
2022-11-22T17:10:10.794Z,14.63
2022-11-22T17:12:37.400Z,14.35
2022-11-22T17:15:04.284Z,13.32
2022-11-22T17:17:30.832Z,11.95
2022-11-22T17:19:58.062Z,14.70
2022-11-22T17:22:25.085Z,15.30
2022-11-22T17:24:51.669Z,15.75
2022-11-22T17:27:18.330Z,17.13
2022-11-22T17:29:52.143Z,16.00
2022-11-22T17:32:19.319Z,15.43
2022-11-22T17:34:45.955Z,14.77
2022-11-22T17:37:13.097Z,15.02
2022-11-22T17:39:40.166Z,14.60
2022-11-22T17:42:06.833Z,13.57
2022-11-22T17:44:34.064Z,15.53
2022-11-22T17:47:01.220Z,16.48
2022-11-22T17:49:28.525Z,15.95
2022-11-22T17:51:55.338Z,15.25
2022-11-22T17:54:22.039Z,17.17
2022-11-22T17:56:48.911Z,14.07
2022-11-22T17:59:15.484Z,15.45
2022-11-22T18:01:43.166Z,15.07
2022-11-22T18:04:10.224Z,14.07
2022-11-22T18:06:36.757Z,14.45
2022-11-22T18:09:03.554Z,16.07
2022-11-22T18:11:30.160Z,15.63
2022-11-22T18:13:56.994Z,16.25
2022-11-22T18:16:28.325Z,16.67
2022-11-22T18:18:57.876Z,16.55
2022-11-22T18:21:26.468Z,16.07
2022-11-22T18:23:53.286Z,14.10
2022-11-22T18:31:54.600Z,15.43
2022-11-22T18:34:22.668Z,14.80
2022-11-22T18:37:01.306Z,15.32
2022-11-22T18:39:38.010Z,14.43
2022-11-22T18:42:12.983Z,16.80
2022-11-22T18:44:39.615Z,16.48
2022-11-22T18:47:06.623Z,13.53
2022-11-22T18:49:33.716Z,16.00
2022-11-22T18:52:00.752Z,14.10
2022-11-22T18:54:27.285Z,11.05
2022-11-22T18:56:54.005Z,18.50
2022-11-22T18:59:20.513Z,17.07
2022-11-22T19:01:47.143Z,16.65
2022-11-22T19:04:15.073Z,16.60
2022-11-22T19:06:42.450Z,16.30
2022-11-22T19:09:09.652Z,14.15
2022-11-22T19:11:36.361Z,14.03
2022-11-22T19:14:03.891Z,15.48
2022-11-22T19:16:31.468Z,11.93
2022-11-22T19:18:58.983Z,15.05
2022-11-22T19:21:27.808Z,14.98
2022-11-22T19:23:55.565Z,15.37
2022-11-22T19:26:24.380Z,14.27
2022-11-22T19:28:56.266Z,15.98
2022-11-22T19:31:25.884Z,14.35
2022-11-22T19:33:52.580Z,15.20
2022-11-22T19:36:29.164Z,13.03
2022-11-22T19:38:59.414Z,14.13
2022-11-22T19:41:26.677Z,15.70
2022-11-22T19:43:53.354Z,16.08
2022-11-22T19:46:20.052Z,16.30
2022-11-22T19:48:54.366Z,16.20
2022-11-22T19:51:22.252Z,15.77
2022-11-22T19:53:48.995Z,15.02
2022-11-22T19:56:19.553Z,16.42
2022-11-22T19:58:51.229Z,17.42
2022-11-22T20:01:18.742Z,15.87
2022-11-22T20:03:46.383Z,17.15
2022-11-22T20:06:14.185Z,16.13
2022-11-22T20:08:41.502Z,16.42
2022-11-22T20:11:16.558Z,15.90
2022-11-22T20:13:45.681Z,16.23
2022-11-22T20:16:20.979Z,14.48
2022-11-22T20:18:48.579Z,17.48
2022-11-22T20:21:20.531Z,15.63
2022-11-22T20:23:50.276Z,16.52
2022-11-22T20:26:17.801Z,15.87
2022-11-22T20:28:46.459Z,16.75
2022-11-22T20:31:16.034Z,15.65
2022-11-22T20:33:45.718Z,15.02
2022-11-22T20:36:14.993Z,15.68
2022-11-22T20:38:43.325Z,14.27
2022-11-22T20:41:11.816Z,14.43
2022-11-22T20:43:38.758Z,15.85
2022-11-22T20:46:08.472Z,16.05
2022-11-22T20:48:36.653Z,15.88
2022-11-22T20:51:05.740Z,15.70
2022-11-22T20:53:33.103Z,16.60
2022-11-22T20:55:59.772Z,16.48
2022-11-22T20:58:26.668Z,16.23
2022-11-22T21:00:53.830Z,15.63
2022-11-22T21:03:20.792Z,12.70
2022-11-22T21:05:51.603Z,17.52
2022-11-22T21:08:18.863Z,16.40
2022-11-22T21:10:45.671Z,15.07
2022-11-22T21:13:12.236Z,17.83
2022-11-22T21:15:38.777Z,15.80
2022-11-22T21:18:28.170Z,16.15
2022-11-22T21:20:52.453Z,15.43
2022-11-22T21:23:19.066Z,15.50
2022-11-22T21:25:46.550Z,15.20
2022-11-22T21:28:13.381Z,15.20
2022-11-22T21:30:40.131Z,14.63
2022-11-22T21:33:06.662Z,15.20
2022-11-22T21:35:33.213Z,16.05
2022-11-22T21:37:59.726Z,15.07
2022-11-22T21:40:26.440Z,15.80
2022-11-22T21:42:53.520Z,16.35
2022-11-22T21:45:20.253Z,16.00
2022-11-22T21:47:49.624Z,15.85
2022-11-22T21:50:16.690Z,14.75
2022-11-22T21:52:43.260Z,15.30
2022-11-22T21:55:11.671Z,16.02
2022-11-22T21:57:38.334Z,15.27
2022-11-22T22:00:05.751Z,17.55
2022-11-22T22:02:32.869Z,14.40
2022-11-22T22:04:59.628Z,15.73
2022-11-22T22:10:14.497Z,14.60
2022-11-22T22:12:41.285Z,15.82
2022-11-22T22:15:10.638Z,15.52
2022-11-22T22:17:37.146Z,14.40
2022-11-22T22:20:04.279Z,14.98
2022-11-22T22:22:30.808Z,16.13
2022-11-22T22:24:57.333Z,15.52
2022-11-22T22:27:23.935Z,15.68
2022-11-22T22:29:50.514Z,15.17
2022-11-22T22:32:17.089Z,16.08
2022-11-22T22:34:43.639Z,15.50
2022-11-22T22:37:10.175Z,15.50
2022-11-22T22:39:36.669Z,12.60
2022-11-22T22:42:03.363Z,15.40
2022-11-22T22:44:30.047Z,16.42
2022-11-22T22:46:56.624Z,15.50
2022-11-22T22:49:23.194Z,16.23
2022-11-22T22:51:51.403Z,15.95
2022-11-22T22:54:17.867Z,14.93
2022-11-22T22:56:44.609Z,15.68
2022-11-22T22:59:11.088Z,14.73
2022-11-22T23:01:37.705Z,13.50
2022-11-22T23:04:04.542Z,15.75
2022-11-22T23:06:35.983Z,15.13
2022-11-22T23:09:05.062Z,14.98
2022-11-22T23:11:51.332Z,14.48
2022-11-22T23:14:26.739Z,14.88
2022-11-22T23:16:57.655Z,15.35
2022-11-22T23:19:25.225Z,15.53
2022-11-22T23:21:51.965Z,15.98
2022-11-22T23:24:18.793Z,14.60
2022-11-22T23:26:45.386Z,16.80
2022-11-22T23:29:12.582Z,15.90
2022-11-22T23:31:39.138Z,16.27
2022-11-22T23:34:05.750Z,16.10
2022-11-22T23:36:35.956Z,14.45
2022-11-22T23:39:04.245Z,16.35
2022-11-22T23:41:30.781Z,16.40
2022-11-22T23:43:57.437Z,15.27
2022-11-22T23:46:27.414Z,15.93
2022-11-22T23:48:59.354Z,15.57
2022-11-22T23:51:27.505Z,16.63
2022-11-22T23:53:59.499Z,15.27
2022-11-22T23:56:27.584Z,16.37
2022-11-22T23:58:54.765Z,15.65
